createdAt,value
2023-09-27T00:01:00.568Z,92.60
2023-09-27T00:03:27.156Z,91.27
2023-09-27T00:05:53.914Z,91.69
2023-09-27T00:08:20.804Z,91.40
2023-09-27T00:10:47.500Z,91.96
2023-09-27T00:13:14.091Z,92.45
2023-09-27T00:15:41.354Z,92.45
2023-09-27T00:18:10.777Z,93.67
2023-09-27T00:20:37.516Z,92.81
2023-09-27T00:23:04.702Z,90.90
2023-09-27T00:25:31.512Z,92.20
2023-09-27T00:27:58.143Z,92.82
2023-09-27T00:30:24.708Z,91.64
2023-09-27T00:32:51.573Z,92.16
2023-09-27T00:35:23.167Z,91.16
2023-09-27T00:37:51.549Z,92.26
2023-09-27T00:40:22.281Z,91.47
2023-09-27T00:42:49.471Z,91.59
2023-09-27T00:45:16.894Z,91.59
2023-09-27T00:47:43.964Z,93.14
2023-09-27T00:50:10.773Z,92.59
2023-09-27T00:52:40.818Z,92.84
2023-09-27T00:55:12.152Z,92.37
2023-09-27T00:57:39.626Z,91.02
2023-09-27T01:00:11.132Z,92.33
2023-09-27T01:02:39.741Z,93.26
2023-09-27T01:05:09.860Z,91.80
2023-09-27T01:07:38.431Z,92.88
2023-09-27T01:10:08.280Z,91.90
2023-09-27T01:12:35.359Z,92.01
2023-09-27T01:15:02.632Z,91.71
2023-09-27T01:17:29.388Z,91.05
2023-09-27T01:19:56.136Z,91.10
2023-09-27T01:22:22.985Z,90.85
2023-09-27T01:24:52.635Z,91.71
2023-09-27T01:27:21.149Z,90.98
2023-09-27T01:29:47.781Z,91.20
2023-09-27T01:32:14.479Z,91.75
2023-09-27T01:34:43.190Z,92.85
2023-09-27T01:37:10.362Z,91.92
2023-09-27T01:39:36.871Z,92.81
2023-09-27T01:42:03.580Z,92.61
2023-09-27T01:44:30.212Z,92.66
2023-09-27T01:46:56.833Z,92.14
2023-09-27T01:49:23.544Z,92.41
2023-09-27T01:51:50.453Z,93.58
2023-09-27T01:54:17.130Z,93.58
2023-09-27T01:56:43.802Z,93.66
2023-09-27T01:59:10.723Z,93.42
2023-09-27T02:01:37.526Z,92.69
2023-09-27T02:04:05.370Z,92.04
2023-09-27T02:06:32.381Z,92.82
2023-09-27T02:08:59.300Z,91.81
2023-09-27T02:11:26.807Z,93.49
2023-09-27T02:13:53.942Z,91.86
2023-09-27T02:16:20.940Z,92.38
2023-09-27T02:18:47.733Z,91.73
2023-09-27T02:21:14.535Z,91.98
2023-09-27T02:23:41.821Z,92.08
2023-09-27T02:26:08.652Z,92.78
2023-09-27T02:28:35.252Z,92.17
2023-09-27T02:31:02.577Z,91.80
2023-09-27T02:33:30.883Z,92.73
2023-09-27T02:35:57.754Z,91.74
2023-09-27T02:38:24.362Z,92.65
2023-09-27T02:40:51.027Z,92.15
2023-09-27T02:43:17.651Z,92.43
2023-09-27T02:45:44.383Z,92.49
2023-09-27T02:48:11.053Z,92.57
2023-09-27T02:50:37.948Z,92.42
2023-09-27T02:53:05.515Z,91.89
2023-09-27T02:55:33.823Z,91.17
2023-09-27T02:58:00.558Z,91.68
2023-09-27T03:00:27.745Z,92.15
2023-09-27T03:02:54.493Z,91.71
2023-09-27T03:05:21.489Z,91.60
2023-09-27T03:07:49.556Z,92.20
2023-09-27T03:10:17.271Z,91.83
2023-09-27T03:12:47.052Z,92.04
2023-09-27T03:15:14.339Z,91.71
2023-09-27T03:17:43.832Z,91.80
2023-09-27T03:20:17.619Z,91.45
2023-09-27T03:22:44.968Z,92.20
2023-09-27T03:25:11.600Z,92.21
2023-09-27T03:27:38.881Z,91.49
2023-09-27T03:30:07.162Z,92.31
2023-09-27T03:32:36.878Z,91.66
2023-09-27T03:35:04.538Z,92.20
2023-09-27T03:37:31.674Z,90.46
2023-09-27T03:39:58.458Z,90.67
2023-09-27T03:42:25.243Z,91.22
2023-09-27T03:44:52.183Z,91.85
2023-09-27T03:47:18.973Z,91.85
2023-09-27T03:49:45.647Z,91.34
2023-09-27T03:52:12.601Z,91.15
2023-09-27T03:54:39.224Z,91.43
2023-09-27T03:57:05.876Z,91.64
2023-09-27T03:59:32.692Z,91.81
2023-09-27T04:02:00.569Z,91.94
2023-09-27T04:04:28.464Z,91.20
2023-09-27T04:06:55.122Z,90.65
2023-09-27T04:09:22.286Z,91.10
2023-09-27T04:11:48.862Z,91.68
2023-09-27T04:14:15.463Z,91.31
2023-09-27T04:16:42.145Z,92.10
2023-09-27T04:19:09.416Z,91.19
2023-09-27T04:21:37.613Z,90.71
2023-09-27T04:24:05.477Z,91.75
2023-09-27T04:26:32.117Z,91.52
2023-09-27T04:28:58.896Z,90.90
2023-09-27T04:31:25.530Z,90.67
2023-09-27T04:33:52.565Z,91.41
2023-09-27T04:36:19.442Z,91.10
2023-09-27T04:38:47.327Z,91.06
2023-09-27T04:41:17.869Z,91.00
2023-09-27T04:43:45.757Z,90.56
2023-09-27T04:46:14.863Z,90.90
2023-09-27T04:48:41.712Z,90.25
2023-09-27T04:51:08.356Z,90.37
2023-09-27T04:53:38.353Z,90.33
2023-09-27T04:56:06.558Z,90.81
2023-09-27T04:58:33.810Z,90.83
2023-09-27T05:01:00.611Z,90.63
2023-09-27T05:03:27.995Z,91.74
2023-09-27T05:05:54.680Z,91.04
2023-09-27T05:08:21.215Z,91.06
2023-09-27T05:10:47.910Z,90.36
2023-09-27T05:13:14.574Z,91.80
2023-09-27T05:15:41.759Z,91.46
2023-09-27T05:18:08.459Z,90.89
2023-09-27T05:20:36.784Z,90.61
2023-09-27T05:23:04.034Z,90.00
2023-09-27T05:25:30.685Z,90.25
2023-09-27T05:27:58.196Z,90.02
2023-09-27T05:30:25.145Z,89.63
2023-09-27T05:32:52.032Z,90.42
2023-09-27T05:35:18.765Z,90.39
2023-09-27T05:37:46.045Z,91.33
2023-09-27T05:40:13.101Z,89.58
2023-09-27T05:42:40.187Z,90.04
2023-09-27T05:45:07.244Z,89.81
2023-09-27T05:47:34.457Z,89.52
2023-09-27T05:50:01.191Z,90.46
2023-09-27T05:52:28.531Z,89.63
2023-09-27T05:54:56.100Z,90.39
2023-09-27T05:57:23.602Z,89.79
2023-09-27T05:59:50.441Z,90.94
2023-09-27T06:02:21.491Z,89.50
2023-09-27T06:04:48.587Z,89.42
2023-09-27T06:07:16.660Z,89.09
2023-09-27T06:09:44.153Z,90.04
2023-09-27T06:12:11.659Z,90.14
2023-09-27T06:14:39.136Z,89.21
2023-09-27T06:17:07.160Z,89.70
2023-09-27T06:19:34.448Z,89.86
2023-09-27T06:22:01.231Z,89.96
2023-09-27T06:24:28.786Z,90.85
2023-09-27T06:26:55.577Z,90.84
2023-09-27T06:29:22.213Z,89.83
2023-09-27T06:31:53.371Z,91.34
2023-09-27T06:34:20.111Z,89.99
2023-09-27T06:36:50.465Z,90.76
2023-09-27T06:39:18.034Z,89.60
2023-09-27T06:41:47.307Z,89.78
2023-09-27T06:44:15.205Z,89.38
2023-09-27T06:46:48.616Z,90.60
2023-09-27T06:49:17.810Z,90.80
2023-09-27T06:51:44.690Z,89.74
2023-09-27T06:54:11.568Z,89.18
2023-09-27T06:56:38.298Z,89.97
2023-09-27T06:59:06.277Z,90.54
2023-09-27T07:01:33.012Z,90.71
2023-09-27T07:03:59.733Z,90.80
2023-09-27T07:06:26.391Z,89.86
2023-09-27T07:08:54.479Z,90.24
2023-09-27T07:11:22.627Z,90.90
2023-09-27T07:13:49.260Z,89.75
2023-09-27T07:16:27.145Z,90.26
2023-09-27T07:18:54.864Z,90.11
2023-09-27T07:21:21.610Z,89.78
2023-09-27T07:23:50.615Z,90.26
2023-09-27T07:26:17.582Z,89.46
2023-09-27T07:28:45.064Z,89.56
2023-09-27T07:31:16.261Z,89.28
2023-09-27T07:33:46.103Z,89.71
2023-09-27T07:36:14.233Z,88.99
2023-09-27T07:38:41.290Z,90.31
2023-09-27T07:41:09.940Z,89.39
2023-09-27T07:43:37.501Z,89.30
2023-09-27T07:46:07.869Z,88.66
2023-09-27T07:48:39.148Z,88.81
2023-09-27T07:51:18.424Z,88.84
2023-09-27T07:53:46.153Z,88.95
2023-09-27T07:56:24.908Z,87.79
2023-09-27T07:58:54.460Z,87.91
2023-09-27T08:01:22.375Z,87.28
2023-09-27T08:03:50.509Z,87.00
2023-09-27T08:06:18.150Z,87.10
2023-09-27T08:08:45.202Z,86.78
2023-09-27T08:11:12.954Z,86.17
2023-09-27T08:13:39.921Z,85.88
2023-09-27T08:16:08.821Z,85.96
2023-09-27T08:18:36.154Z,86.24
2023-09-27T08:21:02.858Z,85.10
2023-09-27T08:23:29.524Z,85.45
2023-09-27T08:25:56.873Z,85.11
2023-09-27T08:28:24.216Z,84.10
2023-09-27T08:30:51.067Z,83.12
2023-09-27T08:33:17.784Z,83.59
2023-09-27T08:35:44.595Z,81.74
2023-09-27T08:38:11.896Z,81.64
2023-09-27T08:40:39.003Z,80.99
2023-09-27T08:43:06.410Z,80.61
2023-09-27T08:45:38.180Z,80.80
2023-09-27T08:48:06.195Z,79.68
2023-09-27T08:50:35.011Z,80.10
2023-09-27T08:53:01.648Z,79.64
2023-09-27T08:55:28.681Z,79.55
2023-09-27T08:57:56.775Z,79.10
2023-09-27T09:00:28.557Z,79.19
2023-09-27T09:03:00.765Z,79.57
2023-09-27T09:05:30.036Z,78.68
2023-09-27T09:08:00.336Z,77.85
2023-09-27T09:10:27.091Z,77.33
2023-09-27T09:12:54.222Z,77.39
2023-09-27T09:15:41.582Z,77.62
2023-09-27T09:18:16.016Z,75.67
2023-09-27T09:20:58.426Z,75.28
2023-09-27T09:23:30.403Z,75.00
2023-09-27T09:25:58.168Z,74.24
2023-09-27T09:28:26.032Z,72.84
2023-09-27T09:30:53.099Z,73.21
2023-09-27T09:33:26.442Z,72.55
2023-09-27T09:35:53.341Z,71.52
2023-09-27T09:38:27.411Z,69.77
2023-09-27T09:40:55.932Z,69.73
2023-09-27T09:43:32.282Z,68.78
2023-09-27T09:45:59.088Z,67.58
2023-09-27T09:48:25.953Z,67.66
2023-09-27T09:50:52.732Z,66.81
2023-09-27T09:53:20.762Z,66.90
2023-09-27T09:56:13.429Z,66.63
2023-09-27T09:58:48.236Z,64.42
2023-09-27T10:01:23.212Z,64.86
2023-09-27T10:03:53.315Z,62.96
2023-09-27T10:06:32.543Z,63.61
2023-09-27T10:09:06.482Z,61.15
2023-09-27T10:11:35.199Z,60.78
2023-09-27T10:14:04.098Z,60.00
2023-09-27T10:16:31.677Z,59.45
2023-09-27T10:18:58.679Z,58.69
2023-09-27T10:21:25.170Z,57.49
2023-09-27T10:23:53.991Z,57.41
2023-09-27T10:26:30.170Z,57.12
2023-09-27T10:29:04.524Z,57.03
2023-09-27T10:31:37.783Z,57.65
2023-09-27T10:34:30.438Z,56.43
2023-09-27T10:37:15.258Z,56.35
2023-09-27T10:40:22.184Z,56.59
2023-09-27T10:42:49.767Z,55.46
2023-09-27T10:45:17.817Z,54.89
2023-09-27T10:47:45.028Z,54.55
2023-09-27T10:50:12.149Z,54.99
2023-09-27T10:52:40.541Z,53.80
2023-09-27T10:55:12.089Z,53.61
2023-09-27T10:57:41.875Z,53.42
2023-09-27T11:00:12.418Z,53.17
2023-09-27T11:02:39.626Z,53.55
2023-09-27T11:05:07.935Z,53.84
2023-09-27T11:07:47.014Z,54.19
2023-09-27T11:10:18.859Z,55.74
2023-09-27T11:12:45.926Z,55.69
2023-09-27T11:15:12.747Z,53.94
2023-09-27T11:17:39.418Z,55.24
2023-09-27T11:20:13.124Z,56.06
2023-09-27T11:22:39.804Z,57.31
2023-09-27T11:25:26.779Z,58.27
2023-09-27T11:27:53.491Z,56.71
2023-09-27T11:30:29.514Z,54.59
2023-09-27T11:32:56.290Z,54.77
2023-09-27T11:35:26.548Z,53.06
2023-09-27T11:38:11.042Z,55.10
2023-09-27T11:40:39.447Z,55.35
2023-09-27T11:43:06.570Z,56.45
2023-09-27T11:45:48.037Z,57.31
2023-09-27T11:48:15.996Z,58.04
2023-09-27T11:50:43.413Z,59.34
2023-09-27T11:53:10.362Z,57.47
2023-09-27T11:55:37.028Z,56.99
2023-09-27T11:58:03.852Z,55.50
2023-09-27T12:00:30.551Z,55.24
2023-09-27T12:02:58.929Z,56.75
2023-09-27T12:05:27.180Z,55.59
2023-09-27T12:07:54.328Z,54.57
2023-09-27T12:10:21.146Z,54.35
2023-09-27T12:12:49.476Z,53.42
2023-09-27T12:15:16.205Z,51.21
2023-09-27T12:17:42.930Z,51.40
2023-09-27T12:20:22.303Z,50.54
2023-09-27T12:22:54.904Z,51.47
2023-09-27T12:25:21.729Z,52.30
2023-09-27T12:27:48.402Z,51.36
2023-09-27T12:30:15.089Z,50.98
2023-09-27T12:32:42.168Z,50.49
2023-09-27T12:35:09.061Z,50.62
2023-09-27T12:37:36.653Z,51.33
2023-09-27T12:40:04.936Z,50.58
2023-09-27T12:42:31.634Z,50.89
2023-09-27T12:44:58.310Z,51.02
2023-09-27T12:47:24.990Z,50.32
2023-09-27T12:49:51.929Z,50.72
2023-09-27T12:52:18.453Z,51.51
2023-09-27T12:54:46.589Z,50.94
2023-09-27T12:57:13.260Z,52.02
2023-09-27T12:59:39.914Z,52.55
2023-09-27T13:02:07.662Z,51.38
2023-09-27T13:04:35.850Z,49.23
2023-09-27T13:07:02.506Z,50.98
2023-09-27T13:09:29.072Z,50.70
2023-09-27T13:11:56.386Z,51.93
2023-09-27T13:14:23.062Z,51.39
2023-09-27T13:16:49.765Z,49.78
2023-09-27T13:19:16.508Z,49.33
2023-09-27T13:21:43.114Z,50.05
2023-09-27T13:24:09.791Z,49.73
2023-09-27T13:26:37.586Z,50.30
2023-09-27T13:29:04.339Z,50.64
2023-09-27T13:31:34.776Z,50.80
2023-09-27T13:34:10.154Z,51.15
2023-09-27T13:36:40.386Z,50.27
2023-09-27T13:39:07.485Z,49.50
2023-09-27T13:41:44.615Z,49.34
2023-09-27T13:44:13.387Z,49.01
2023-09-27T13:46:40.287Z,48.50
2023-09-27T13:49:07.390Z,49.09
2023-09-27T13:51:37.147Z,49.31
2023-09-27T13:54:08.123Z,49.15
2023-09-27T13:56:35.557Z,49.81
2023-09-27T13:59:02.175Z,51.85
2023-09-27T14:01:29.631Z,52.43
2023-09-27T14:03:56.885Z,53.08
2023-09-27T14:06:23.545Z,53.49
2023-09-27T14:08:50.205Z,53.89
2023-09-27T14:11:17.847Z,52.93
2023-09-27T14:13:46.419Z,52.49
2023-09-27T14:16:13.578Z,52.58
2023-09-27T14:18:40.667Z,52.70
2023-09-27T14:21:08.282Z,51.98
2023-09-27T14:23:36.539Z,52.60
2023-09-27T14:26:03.725Z,52.55
2023-09-27T14:28:30.668Z,53.55
2023-09-27T14:30:57.287Z,53.93
2023-09-27T14:33:24.618Z,53.79
2023-09-27T14:35:53.215Z,54.53
2023-09-27T14:38:20.228Z,54.83
2023-09-27T14:40:47.031Z,55.91
2023-09-27T14:43:14.868Z,55.45
2023-09-27T14:45:41.709Z,56.47
2023-09-27T14:48:09.833Z,56.53
2023-09-27T14:50:36.563Z,56.73
2023-09-27T14:53:03.348Z,56.39
2023-09-27T14:55:30.053Z,56.66
2023-09-27T14:57:57.613Z,56.71
2023-09-27T15:00:24.369Z,57.12
2023-09-27T15:02:51.591Z,56.47
2023-09-27T15:05:18.380Z,56.48
2023-09-27T15:07:45.065Z,56.48
2023-09-27T15:10:11.786Z,56.90
2023-09-27T15:12:38.887Z,55.40
2023-09-27T15:15:09.765Z,54.67
2023-09-27T15:17:44.591Z,54.99
2023-09-27T15:20:13.521Z,56.15
2023-09-27T15:22:40.331Z,55.49
2023-09-27T15:25:07.382Z,56.11
2023-09-27T15:27:34.505Z,56.39
2023-09-27T15:30:01.351Z,57.29
2023-09-27T15:32:27.957Z,58.47
2023-09-27T15:34:54.664Z,59.77
2023-09-27T15:37:21.227Z,61.09
2023-09-27T15:39:47.800Z,62.50
2023-09-27T15:42:15.256Z,63.34
2023-09-27T15:44:42.097Z,63.95
2023-09-27T15:47:12.627Z,64.30
2023-09-27T15:49:39.562Z,64.53
2023-09-27T15:52:06.135Z,64.21
2023-09-27T15:54:34.196Z,65.26
2023-09-27T15:57:00.849Z,65.24
2023-09-27T15:59:27.795Z,66.71
2023-09-27T16:01:57.461Z,67.20
2023-09-27T16:04:26.094Z,67.99
2023-09-27T16:06:52.985Z,67.72
2023-09-27T16:09:19.623Z,68.11
2023-09-27T16:11:46.493Z,68.04
2023-09-27T16:14:13.306Z,68.39
2023-09-27T16:16:40.040Z,68.56
2023-09-27T16:19:07.111Z,68.80
2023-09-27T16:21:33.883Z,69.93
2023-09-27T16:24:01.717Z,70.89
2023-09-27T16:26:28.615Z,71.85
2023-09-27T16:28:55.303Z,71.32
2023-09-27T16:31:22.610Z,71.93
2023-09-27T16:33:49.407Z,73.22
2023-09-27T16:36:17.796Z,73.06
2023-09-27T16:38:45.041Z,73.75
2023-09-27T16:41:11.604Z,73.97
2023-09-27T16:43:40.694Z,74.22
2023-09-27T16:46:08.469Z,74.39
2023-09-27T16:48:36.244Z,75.26
2023-09-27T16:51:03.342Z,75.71
2023-09-27T16:53:30.350Z,75.85
2023-09-27T16:55:56.800Z,76.60
2023-09-27T16:58:26.541Z,77.58
2023-09-27T17:00:53.553Z,77.94
2023-09-27T17:03:20.772Z,78.16
2023-09-27T17:05:49.730Z,79.64
2023-09-27T17:08:17.364Z,79.71
2023-09-27T17:10:44.826Z,81.01
2023-09-27T17:13:11.869Z,80.82
2023-09-27T17:15:38.418Z,81.42
2023-09-27T17:18:05.532Z,82.37
2023-09-27T17:20:32.136Z,83.02
2023-09-27T17:22:58.798Z,81.79
2023-09-27T17:25:25.929Z,82.66
2023-09-27T17:27:52.402Z,83.86
2023-09-27T17:30:20.514Z,83.71
2023-09-27T17:32:47.210Z,84.06
2023-09-27T17:35:13.891Z,83.54
2023-09-27T17:37:40.629Z,83.41
2023-09-27T17:40:09.203Z,84.37
2023-09-27T17:42:39.545Z,84.11
2023-09-27T17:45:07.938Z,85.36
2023-09-27T17:47:35.011Z,84.27
2023-09-27T17:50:02.146Z,85.66
2023-09-27T17:52:28.724Z,84.70
2023-09-27T17:54:55.327Z,85.99
2023-09-27T17:57:22.109Z,85.12
2023-09-27T17:59:48.675Z,85.87
2023-09-27T18:02:16.440Z,85.73
2023-09-27T18:04:43.005Z,86.39
2023-09-27T18:07:09.718Z,85.97
2023-09-27T18:09:37.089Z,87.03
2023-09-27T18:12:05.561Z,86.98
2023-09-27T18:14:32.198Z,86.36
2023-09-27T18:16:59.009Z,86.80
2023-09-27T18:19:25.938Z,87.25
2023-09-27T18:21:52.797Z,86.70
2023-09-27T18:24:19.406Z,86.30
2023-09-27T18:26:46.041Z,86.51
2023-09-27T18:29:12.669Z,86.63
2023-09-27T18:31:40.245Z,86.79
2023-09-27T18:34:07.091Z,86.55
2023-09-27T18:36:34.700Z,87.98
2023-09-27T18:39:01.534Z,87.40
2023-09-27T18:41:28.510Z,87.93
2023-09-27T18:43:55.659Z,87.30
2023-09-27T18:46:23.910Z,88.31
2023-09-27T18:48:51.850Z,88.07
2023-09-27T18:51:23.126Z,88.06
2023-09-27T18:53:50.684Z,89.85
2023-09-27T18:56:20.804Z,89.05
2023-09-27T18:58:50.638Z,88.49
2023-09-27T19:01:17.495Z,87.97
2023-09-27T19:03:45.479Z,86.74
2023-09-27T19:06:15.535Z,87.33
2023-09-27T19:08:42.603Z,87.00
2023-09-27T19:11:09.547Z,88.38
2023-09-27T19:13:37.626Z,87.97
2023-09-27T19:16:08.637Z,88.57
2023-09-27T19:18:36.019Z,88.18
2023-09-27T19:21:02.618Z,88.07
2023-09-27T19:23:29.248Z,88.25
2023-09-27T19:25:55.883Z,88.01
2023-09-27T19:28:22.955Z,89.09
2023-09-27T19:30:50.586Z,88.79
2023-09-27T19:33:17.909Z,89.57
2023-09-27T19:35:45.822Z,89.08
2023-09-27T19:38:13.092Z,88.79
2023-09-27T19:40:39.923Z,88.84
2023-09-27T19:43:06.661Z,89.11
2023-09-27T19:45:34.017Z,90.17
2023-09-27T19:48:01.697Z,90.14
2023-09-27T19:50:28.253Z,88.71
2023-09-27T19:52:54.933Z,89.84
2023-09-27T19:55:21.807Z,89.50
2023-09-27T19:57:48.900Z,90.63
2023-09-27T20:00:18.497Z,89.63
2023-09-27T20:02:46.684Z,90.28
2023-09-27T20:05:13.413Z,90.03
2023-09-27T20:07:41.272Z,90.99
2023-09-27T20:10:08.655Z,90.37
2023-09-27T20:12:35.430Z,91.29
2023-09-27T20:15:02.088Z,91.28
2023-09-27T20:17:28.745Z,91.94
2023-09-27T20:19:55.653Z,91.61
2023-09-27T20:22:22.420Z,91.54
2023-09-27T20:24:49.103Z,91.40
2023-09-27T20:27:16.338Z,91.13
2023-09-27T20:29:43.223Z,91.16
2023-09-27T20:32:09.870Z,90.21
2023-09-27T20:34:36.997Z,90.90
2023-09-27T20:37:03.615Z,91.52
2023-09-27T20:39:30.185Z,91.73
2023-09-27T20:41:58.000Z,91.12
2023-09-27T20:44:25.344Z,90.90
2023-09-27T20:46:52.384Z,90.60
2023-09-27T20:49:19.021Z,90.11
2023-09-27T20:51:45.574Z,90.89
2023-09-27T20:54:12.324Z,90.18
2023-09-27T20:56:39.355Z,90.05
2023-09-27T20:59:07.294Z,90.14
2023-09-27T21:01:39.774Z,89.88
2023-09-27T21:04:06.994Z,91.08
2023-09-27T21:06:34.121Z,90.78
2023-09-27T21:09:02.498Z,91.09
2023-09-27T21:11:29.615Z,90.22
2023-09-27T21:13:59.596Z,90.41
2023-09-27T21:16:27.766Z,90.96
2023-09-27T21:18:55.841Z,90.86
2023-09-27T21:21:23.759Z,90.43
2023-09-27T21:23:51.335Z,90.18
2023-09-27T21:26:18.165Z,90.58
2023-09-27T21:28:44.906Z,91.08
2023-09-27T21:31:14.788Z,90.43
2023-09-27T21:33:43.147Z,91.26
2023-09-27T21:36:09.911Z,90.83
2023-09-27T21:38:37.135Z,90.93
2023-09-27T21:41:04.565Z,90.68
2023-09-27T21:43:33.374Z,90.55
2023-09-27T21:46:00.364Z,90.61
2023-09-27T21:48:27.209Z,90.63
2023-09-27T21:50:53.786Z,90.39
2023-09-27T21:53:20.404Z,90.34
2023-09-27T21:55:47.070Z,90.06
2023-09-27T21:58:13.851Z,90.27
2023-09-27T22:00:40.461Z,90.40
2023-09-27T22:03:07.317Z,91.07
2023-09-27T22:05:34.418Z,91.24
2023-09-27T22:08:01.540Z,91.54
2023-09-27T22:10:35.751Z,91.14
2023-09-27T22:13:22.175Z,91.26
2023-09-27T22:15:55.871Z,91.34
2023-09-27T22:18:23.612Z,91.15
2023-09-27T22:20:50.583Z,90.84
2023-09-27T22:23:40.479Z,91.34
2023-09-27T22:26:17.055Z,91.57
2023-09-27T22:28:49.459Z,91.77
2023-09-27T22:31:32.158Z,91.47
2023-09-27T22:34:11.047Z,91.57
2023-09-27T22:36:39.369Z,91.23
2023-09-27T22:39:12.178Z,91.43
2023-09-27T22:41:41.681Z,91.05
2023-09-27T22:44:21.772Z,91.01
2023-09-27T22:46:55.603Z,92.04
2023-09-27T22:49:24.302Z,91.65
2023-09-27T22:51:51.202Z,91.38
2023-09-27T22:54:20.138Z,91.41
2023-09-27T22:56:48.950Z,91.73
2023-09-27T22:59:16.151Z,91.45
2023-09-27T23:01:44.966Z,91.96
2023-09-27T23:04:16.259Z,91.37
2023-09-27T23:06:47.860Z,91.38
2023-09-27T23:09:22.141Z,91.96
2023-09-27T23:11:50.479Z,92.35
2023-09-27T23:14:22.969Z,92.55
2023-09-27T23:16:51.022Z,92.15
2023-09-27T23:19:18.973Z,92.41
2023-09-27T23:21:49.230Z,92.08
2023-09-27T23:24:21.690Z,92.02
2023-09-27T23:27:00.348Z,92.27
2023-09-27T23:29:30.424Z,91.52
2023-09-27T23:32:15.394Z,92.06
2023-09-27T23:34:42.155Z,92.01
2023-09-27T23:37:17.084Z,92.82
2023-09-27T23:39:50.033Z,91.96
2023-09-27T23:42:23.961Z,92.70
2023-09-27T23:45:09.732Z,92.13
2023-09-27T23:47:51.012Z,92.15
2023-09-27T23:50:18.392Z,92.63
2023-09-27T23:52:47.303Z,92.31
2023-09-27T23:55:15.799Z,92.05
2023-09-27T23:57:47.638Z,92.24
